createdAt,value
2022-10-28T00:00:09.012Z,19.90
2022-10-28T00:02:36.161Z,19.90
2022-10-28T00:05:03.256Z,19.90
2022-10-28T00:07:30.350Z,19.80
2022-10-28T00:09:57.461Z,19.80
2022-10-28T00:12:24.599Z,19.80
2022-10-28T00:14:51.977Z,19.90
2022-10-28T00:17:19.038Z,19.90
2022-10-28T00:19:46.184Z,19.80
2022-10-28T00:22:14.116Z,19.80
2022-10-28T00:24:41.205Z,19.80
2022-10-28T00:27:08.233Z,19.80
2022-10-28T00:29:35.265Z,19.80
2022-10-28T00:32:02.325Z,19.80
2022-10-28T00:34:29.357Z,19.80
2022-10-28T00:36:56.523Z,19.80
2022-10-28T00:39:24.794Z,19.80
2022-10-28T00:41:52.976Z,19.80
2022-10-28T00:44:38.677Z,19.80
2022-10-28T00:47:29.029Z,19.80
2022-10-28T00:49:58.449Z,19.80
2022-10-28T00:52:28.560Z,19.70
2022-10-28T00:54:56.668Z,19.80
2022-10-28T00:57:26.652Z,19.80
2022-10-28T00:59:54.109Z,19.70
2022-10-28T01:02:21.710Z,19.70
2022-10-28T01:04:49.330Z,19.80
2022-10-28T01:07:17.236Z,19.70
2022-10-28T01:09:44.566Z,19.70
2022-10-28T01:12:14.774Z,19.70
2022-10-28T01:14:47.871Z,19.70
2022-10-28T01:17:14.887Z,19.70
2022-10-28T01:19:48.003Z,19.70
2022-10-28T01:22:24.032Z,19.80
2022-10-28T01:25:09.975Z,19.80
2022-10-28T01:27:37.022Z,19.80
2022-10-28T01:30:10.138Z,19.80
2022-10-28T01:32:46.276Z,19.80
2022-10-28T01:35:16.528Z,19.70
2022-10-28T01:37:49.098Z,19.70
2022-10-28T01:40:24.801Z,19.70
2022-10-28T01:42:54.601Z,19.70
2022-10-28T01:45:34.390Z,19.70
2022-10-28T01:48:02.416Z,19.70
2022-10-28T01:50:29.465Z,19.70
2022-10-28T01:52:58.077Z,19.70
2022-10-28T01:55:30.169Z,19.70
2022-10-28T01:57:58.731Z,19.70
2022-10-28T02:00:26.474Z,19.70
2022-10-28T02:02:55.871Z,19.70
2022-10-28T02:05:38.714Z,19.70
2022-10-28T02:08:17.751Z,19.70
2022-10-28T02:11:03.120Z,19.70
2022-10-28T02:13:36.172Z,19.70
2022-10-28T02:16:12.127Z,19.60
2022-10-28T02:18:49.521Z,19.60
2022-10-28T02:21:25.040Z,19.70
2022-10-28T02:24:00.347Z,19.70
2022-10-28T02:26:34.271Z,19.70
2022-10-28T02:29:04.175Z,19.70
2022-10-28T02:31:31.218Z,19.70
2022-10-28T02:34:00.431Z,19.70
2022-10-28T02:36:30.754Z,19.70
2022-10-28T02:38:58.518Z,19.70
2022-10-28T02:41:28.098Z,19.70
2022-10-28T02:43:57.385Z,19.70
2022-10-28T02:46:26.976Z,19.70
2022-10-28T02:48:57.028Z,19.70
2022-10-28T02:51:44.323Z,19.70
2022-10-28T02:54:15.799Z,19.70
2022-10-28T02:56:48.353Z,19.70
2022-10-28T02:59:15.504Z,19.60
2022-10-28T03:01:42.587Z,19.60
2022-10-28T03:04:09.872Z,19.60
2022-10-28T03:06:36.888Z,19.60
2022-10-28T03:09:04.045Z,19.60
2022-10-28T03:11:31.139Z,19.60
2022-10-28T03:13:58.180Z,19.60
2022-10-28T03:16:26.616Z,19.60
2022-10-28T03:18:53.691Z,19.60
2022-10-28T03:21:20.764Z,19.60
2022-10-28T03:23:47.861Z,19.60
2022-10-28T03:26:14.877Z,19.60
2022-10-28T03:28:41.903Z,19.60
2022-10-28T03:31:08.955Z,19.60
2022-10-28T03:33:35.935Z,19.60
2022-10-28T03:36:02.992Z,19.60
2022-10-28T03:38:30.031Z,19.60
2022-10-28T03:40:57.122Z,19.60
2022-10-28T03:43:24.236Z,19.60
2022-10-28T03:45:51.316Z,19.60
2022-10-28T03:48:18.395Z,19.60
2022-10-28T03:50:45.422Z,19.60
2022-10-28T03:53:12.600Z,19.60
2022-10-28T03:55:39.629Z,19.50
2022-10-28T03:58:06.781Z,19.60
2022-10-28T04:00:33.872Z,19.60
2022-10-28T04:03:00.961Z,19.60
2022-10-28T04:05:28.026Z,19.60
2022-10-28T04:07:55.075Z,19.70
2022-10-28T04:10:22.269Z,19.60
2022-10-28T04:12:49.336Z,19.70
2022-10-28T04:15:16.538Z,19.60
2022-10-28T04:17:43.712Z,19.70
2022-10-28T04:20:10.909Z,19.70
2022-10-28T04:22:38.011Z,19.70
2022-10-28T04:25:05.458Z,19.70
2022-10-28T04:27:32.655Z,19.70
2022-10-28T04:29:59.843Z,19.70
2022-10-28T04:32:26.860Z,19.80
2022-10-28T04:34:53.906Z,19.80
2022-10-28T04:37:21.019Z,19.80
2022-10-28T04:39:48.169Z,19.80
2022-10-28T04:42:15.508Z,19.80
2022-10-28T04:44:42.551Z,19.80
2022-10-28T04:47:09.724Z,19.80
2022-10-28T04:49:38.844Z,19.80
2022-10-28T04:52:06.302Z,19.80
2022-10-28T04:54:33.333Z,19.80
2022-10-28T04:57:00.399Z,19.80
2022-10-28T04:59:27.535Z,19.80
2022-10-28T05:01:54.708Z,19.80
2022-10-28T05:04:21.946Z,19.90
2022-10-28T05:06:48.988Z,19.80
2022-10-28T05:09:16.056Z,19.80
2022-10-28T05:11:43.299Z,19.90
2022-10-28T05:14:10.378Z,20.00
2022-10-28T05:16:37.528Z,20.10
2022-10-28T05:19:04.628Z,20.20
2022-10-28T05:21:31.696Z,20.30
2022-10-28T05:23:58.775Z,20.50
2022-10-28T05:26:25.820Z,20.60
2022-10-28T05:28:52.917Z,20.70
2022-10-28T05:31:19.991Z,20.70
2022-10-28T05:33:47.033Z,20.80
2022-10-28T05:36:14.081Z,20.80
2022-10-28T05:38:45.291Z,20.80
2022-10-28T05:41:12.639Z,20.90
2022-10-28T05:43:39.634Z,20.80
2022-10-28T05:46:06.832Z,20.90
2022-10-28T05:48:34.125Z,20.90
2022-10-28T05:51:01.181Z,20.80
2022-10-28T05:53:28.208Z,20.80
2022-10-28T05:55:55.344Z,20.80
2022-10-28T05:58:23.490Z,20.80
2022-10-28T06:00:50.485Z,20.80
2022-10-28T06:03:17.933Z,20.80
2022-10-28T06:05:45.645Z,20.70
2022-10-28T06:08:13.192Z,20.80
2022-10-28T06:10:40.491Z,20.70
2022-10-28T06:13:07.317Z,20.70
2022-10-28T06:15:34.367Z,20.70
2022-10-28T06:18:01.518Z,20.70
2022-10-28T06:20:28.541Z,20.70
2022-10-28T06:22:56.125Z,20.70
2022-10-28T06:25:24.135Z,20.60
2022-10-28T06:27:54.915Z,20.60
2022-10-28T06:30:23.072Z,20.60
2022-10-28T06:32:50.123Z,20.60
2022-10-28T06:35:17.582Z,20.60
2022-10-28T06:37:44.662Z,20.60
2022-10-28T06:40:11.964Z,20.60
2022-10-28T06:42:39.054Z,20.60
2022-10-28T06:45:06.548Z,20.50
2022-10-28T06:47:39.042Z,20.50
2022-10-28T06:50:08.670Z,20.50
2022-10-28T06:52:35.822Z,20.50
2022-10-28T06:55:02.905Z,20.50
2022-10-28T06:57:30.882Z,20.50
2022-10-28T06:59:57.962Z,20.60
2022-10-28T07:02:25.242Z,20.60
2022-10-28T07:04:52.329Z,20.60
2022-10-28T07:07:19.708Z,20.60
2022-10-28T07:09:46.722Z,20.50
2022-10-28T07:12:13.787Z,20.50
2022-10-28T07:14:40.858Z,20.50
2022-10-28T07:17:08.144Z,20.50
2022-10-28T07:19:35.199Z,20.50
2022-10-28T07:22:02.206Z,20.50
2022-10-28T07:24:29.297Z,20.50
2022-10-28T07:26:57.851Z,20.60
2022-10-28T07:29:25.064Z,20.60
2022-10-28T07:31:53.951Z,20.40
2022-10-28T07:34:26.019Z,20.10
2022-10-28T07:36:55.245Z,19.80
2022-10-28T07:39:22.697Z,19.60
2022-10-28T07:41:49.773Z,19.70
2022-10-28T07:44:16.852Z,19.80
2022-10-28T07:46:43.883Z,20.00
2022-10-28T07:49:10.912Z,20.00
2022-10-28T07:51:38.007Z,20.10
2022-10-28T07:54:05.326Z,20.10
2022-10-28T07:56:32.673Z,20.20
2022-10-28T07:59:00.721Z,20.20
2022-10-28T08:01:27.844Z,20.20
2022-10-28T08:03:55.338Z,20.30
2022-10-28T08:06:22.671Z,20.30
2022-10-28T08:08:53.807Z,20.40
2022-10-28T08:11:24.366Z,20.40
2022-10-28T08:13:52.500Z,20.50
2022-10-28T08:16:19.584Z,20.50
2022-10-28T08:18:46.703Z,20.60
2022-10-28T08:21:14.578Z,20.70
2022-10-28T08:23:46.228Z,20.70
2022-10-28T08:26:14.223Z,20.70
2022-10-28T08:28:41.649Z,20.70
2022-10-28T08:31:10.034Z,20.70
2022-10-28T08:33:38.721Z,20.70
2022-10-28T08:36:06.790Z,20.70
2022-10-28T08:38:33.900Z,20.70
2022-10-28T08:41:08.126Z,20.80
2022-10-28T08:43:57.718Z,20.70
2022-10-28T08:46:36.146Z,20.70
2022-10-28T08:49:07.507Z,20.70
2022-10-28T08:51:44.034Z,20.70
2022-10-28T08:54:14.806Z,20.70
2022-10-28T08:56:49.020Z,20.70
2022-10-28T08:59:21.675Z,20.70
2022-10-28T09:01:51.828Z,20.70
2022-10-28T09:04:38.234Z,20.70
2022-10-28T09:07:05.987Z,20.70
2022-10-28T09:09:33.279Z,20.60
2022-10-28T09:12:12.752Z,20.60
2022-10-28T09:14:58.614Z,20.50
2022-10-28T09:17:55.404Z,20.60
2022-10-28T09:20:28.279Z,20.50
2022-10-28T09:22:57.048Z,20.50
2022-10-28T09:25:48.535Z,20.60
2022-10-28T09:28:39.250Z,20.60
2022-10-28T09:31:28.915Z,20.60
2022-10-28T09:34:05.423Z,20.60
2022-10-28T09:36:37.948Z,20.70
2022-10-28T09:39:06.164Z,20.60
2022-10-28T09:41:40.671Z,20.70
2022-10-28T09:44:18.769Z,20.60
2022-10-28T09:46:50.309Z,20.60
2022-10-28T09:49:20.719Z,20.60
2022-10-28T09:51:52.145Z,20.60
2022-10-28T09:54:21.688Z,20.60
2022-10-28T09:56:48.726Z,20.60
2022-10-28T09:59:16.455Z,20.60
2022-10-28T10:01:45.724Z,20.60
2022-10-28T10:04:17.715Z,20.60
2022-10-28T10:06:46.186Z,20.50
2022-10-28T10:09:21.630Z,20.40
2022-10-28T10:11:49.038Z,20.20
2022-10-28T10:14:19.209Z,20.10
2022-10-28T10:16:48.770Z,20.00
2022-10-28T10:19:15.865Z,19.90
2022-10-28T10:21:50.435Z,19.80
2022-10-28T10:24:34.406Z,19.80
2022-10-28T10:27:10.335Z,19.80
2022-10-28T10:29:38.188Z,19.80
2022-10-28T10:32:07.502Z,19.90
2022-10-28T10:34:34.667Z,20.00
2022-10-28T10:39:37.396Z,20.10
2022-10-28T10:42:14.559Z,20.10
2022-10-28T10:44:43.070Z,20.10
2022-10-28T10:47:10.114Z,20.20
2022-10-28T10:49:37.553Z,20.20
2022-10-28T10:52:07.548Z,20.30
2022-10-28T10:54:36.089Z,20.30
2022-10-28T10:57:10.607Z,20.30
2022-10-28T10:59:37.990Z,20.30
2022-10-28T11:02:19.322Z,20.20
2022-10-28T11:04:51.095Z,20.20
2022-10-28T11:07:18.780Z,20.40
2022-10-28T11:09:48.452Z,20.40
2022-10-28T11:12:26.494Z,20.60
2022-10-28T11:14:58.197Z,20.60
2022-10-28T11:17:26.898Z,20.60
2022-10-28T11:19:54.890Z,20.60
2022-10-28T11:22:29.943Z,20.60
2022-10-28T11:25:00.211Z,20.70
2022-10-28T11:27:48.602Z,20.70
2022-10-28T11:30:21.177Z,20.80
2022-10-28T11:33:01.851Z,20.80
2022-10-28T11:35:53.912Z,20.80
2022-10-28T11:38:35.303Z,20.80
2022-10-28T11:41:20.725Z,20.80
2022-10-28T11:43:55.278Z,20.80
2022-10-28T11:46:43.895Z,20.80
2022-10-28T11:49:17.173Z,20.80
2022-10-28T11:51:49.947Z,20.80
2022-10-28T11:54:27.038Z,20.90
2022-10-28T11:57:08.726Z,20.90
2022-10-28T12:00:15.122Z,20.80
2022-10-28T12:02:49.318Z,20.80
2022-10-28T12:05:30.763Z,20.80
2022-10-28T12:08:10.179Z,20.70
2022-10-28T12:10:37.360Z,20.70
2022-10-28T12:13:07.271Z,20.60
2022-10-28T12:15:37.093Z,20.60
2022-10-28T12:18:13.243Z,20.60
2022-10-28T12:20:46.635Z,20.60
2022-10-28T12:23:16.180Z,20.60
2022-10-28T12:25:45.050Z,20.60
2022-10-28T12:28:33.260Z,20.60
2022-10-28T12:31:01.360Z,20.60
2022-10-28T12:33:34.861Z,20.60
2022-10-28T12:36:05.367Z,20.60
2022-10-28T12:38:32.339Z,20.60
2022-10-28T12:41:13.643Z,20.60
2022-10-28T12:43:51.950Z,20.60
2022-10-28T12:46:39.003Z,20.60
2022-10-28T12:49:14.412Z,20.60
2022-10-28T12:51:41.966Z,20.60
2022-10-28T12:54:27.381Z,20.60
2022-10-28T12:57:08.522Z,20.70
2022-10-28T12:59:37.776Z,20.60
2022-10-28T13:02:08.067Z,20.60
2022-10-28T13:04:36.775Z,20.60
2022-10-28T13:07:20.942Z,20.60
2022-10-28T13:09:50.914Z,20.60
2022-10-28T13:12:26.157Z,20.60
2022-10-28T13:15:03.522Z,20.60
2022-10-28T13:17:31.003Z,20.60
2022-10-28T13:20:08.063Z,20.60
2022-10-28T13:22:44.873Z,20.60
2022-10-28T13:25:18.925Z,20.60
2022-10-28T13:27:45.982Z,20.60
2022-10-28T13:30:16.971Z,20.60
2022-10-28T13:32:44.322Z,20.60
2022-10-28T13:35:13.447Z,20.50
2022-10-28T13:37:40.972Z,20.50
2022-10-28T13:40:20.463Z,20.50
2022-10-28T13:42:49.021Z,20.50
2022-10-28T13:45:35.036Z,20.50
2022-10-28T13:48:20.649Z,20.50
2022-10-28T13:50:47.681Z,20.50
2022-10-28T13:53:23.851Z,20.50
2022-10-28T13:55:55.968Z,20.50
2022-10-28T13:58:24.345Z,20.50
2022-10-28T14:00:53.500Z,20.50
2022-10-28T14:03:27.583Z,20.50
2022-10-28T14:05:57.339Z,20.50
2022-10-28T14:08:24.340Z,20.50
2022-10-28T14:11:00.581Z,20.50
2022-10-28T14:13:27.930Z,20.50
2022-10-28T14:16:30.499Z,20.60
2022-10-28T14:19:02.669Z,20.60
2022-10-28T14:21:40.335Z,20.60
2022-10-28T14:24:09.092Z,20.60
2022-10-28T14:26:54.936Z,20.60
2022-10-28T14:29:29.005Z,20.60
2022-10-28T14:31:56.078Z,20.60
2022-10-28T14:34:29.110Z,20.60
2022-10-28T14:37:14.763Z,20.60
2022-10-28T14:39:52.523Z,20.60
2022-10-28T14:42:27.113Z,20.60
2022-10-28T14:45:14.430Z,20.60
2022-10-28T14:48:00.020Z,20.60
2022-10-28T14:50:33.159Z,20.60
2022-10-28T14:53:01.489Z,20.70
2022-10-28T14:55:30.612Z,20.70
2022-10-28T14:58:16.604Z,20.70
2022-10-28T15:00:49.302Z,20.70
2022-10-28T15:03:16.642Z,20.70
2022-10-28T15:05:43.651Z,20.70
2022-10-28T15:08:11.185Z,20.70
2022-10-28T15:10:40.572Z,20.70
2022-10-28T15:13:15.522Z,20.70
2022-10-28T15:15:50.908Z,20.70
2022-10-28T15:18:25.814Z,20.70
2022-10-28T15:21:09.176Z,20.70
2022-10-28T15:23:36.308Z,20.70
2022-10-28T15:26:07.425Z,20.70
2022-10-28T15:28:34.437Z,20.70
2022-10-28T15:31:01.562Z,20.80
2022-10-28T15:33:32.678Z,20.80
2022-10-28T15:36:17.797Z,20.80
2022-10-28T15:38:46.357Z,20.70
2022-10-28T15:41:22.523Z,20.70
2022-10-28T15:43:54.193Z,20.70
2022-10-28T15:46:22.329Z,20.70
2022-10-28T15:48:52.815Z,20.70
2022-10-28T15:51:20.542Z,20.60
2022-10-28T15:53:48.092Z,20.60
2022-10-28T15:56:15.236Z,20.60
2022-10-28T15:58:43.390Z,20.60
2022-10-28T16:01:29.442Z,20.60
2022-10-28T16:03:56.935Z,20.70
2022-10-28T16:06:31.904Z,20.70
2022-10-28T16:09:19.324Z,20.80
2022-10-28T16:11:51.187Z,20.80
2022-10-28T16:14:18.195Z,20.90
2022-10-28T16:16:45.314Z,20.90
2022-10-28T16:19:20.880Z,21.10
2022-10-28T16:21:47.975Z,21.20
2022-10-28T16:24:15.031Z,21.20
2022-10-28T16:26:42.144Z,21.30
2022-10-28T16:29:09.190Z,21.40
2022-10-28T16:31:36.302Z,21.40
2022-10-28T16:34:03.306Z,21.40
2022-10-28T16:36:32.044Z,21.40
2022-10-28T16:38:59.058Z,21.40
2022-10-28T16:41:26.159Z,21.40
2022-10-28T16:43:53.875Z,21.50
2022-10-28T16:46:21.082Z,21.60
2022-10-28T16:48:48.135Z,21.60
2022-10-28T16:51:19.184Z,21.60
2022-10-28T16:53:50.802Z,21.50
2022-10-28T16:56:18.228Z,21.50
2022-10-28T16:58:46.341Z,21.50
2022-10-28T17:01:15.422Z,21.50
2022-10-28T17:03:42.560Z,21.50
2022-10-28T17:06:10.418Z,21.50
2022-10-28T17:09:01.116Z,21.40
2022-10-28T17:11:24.530Z,21.40
2022-10-28T17:13:51.557Z,21.50
2022-10-28T17:16:18.585Z,21.50
2022-10-28T17:18:47.308Z,21.50
2022-10-28T17:21:14.351Z,21.40
2022-10-28T17:23:41.369Z,21.40
2022-10-28T17:26:08.774Z,21.40
2022-10-28T17:28:35.846Z,21.40
2022-10-28T17:31:03.745Z,21.30
2022-10-28T17:33:30.840Z,21.40
2022-10-28T17:36:01.706Z,21.40
2022-10-28T17:38:31.818Z,21.40
2022-10-28T17:40:58.861Z,21.40
2022-10-28T17:43:26.190Z,21.40
2022-10-28T17:46:02.267Z,21.40
2022-10-28T17:48:29.392Z,21.40
2022-10-28T17:50:57.302Z,21.40
2022-10-28T17:53:24.320Z,21.30
2022-10-28T17:55:57.796Z,21.30
2022-10-28T17:58:25.142Z,21.40
2022-10-28T18:00:59.144Z,21.30
2022-10-28T18:03:26.521Z,21.30
2022-10-28T18:05:53.627Z,21.30
2022-10-28T18:08:21.668Z,21.30
2022-10-28T18:10:56.296Z,21.30
2022-10-28T18:13:27.363Z,21.30
2022-10-28T18:15:54.481Z,21.30
2022-10-28T18:18:21.663Z,21.20
2022-10-28T18:20:55.099Z,21.20
2022-10-28T18:23:22.410Z,21.20
2022-10-28T18:26:09.803Z,21.20
2022-10-28T18:28:37.334Z,21.20
2022-10-28T18:31:14.544Z,21.20
2022-10-28T18:33:42.162Z,21.20
2022-10-28T18:36:13.994Z,21.20
2022-10-28T18:38:41.400Z,21.20
2022-10-28T18:41:09.923Z,21.20
2022-10-28T18:43:36.968Z,21.10
2022-10-28T18:46:04.055Z,21.10
2022-10-28T18:48:31.416Z,21.10
2022-10-28T18:50:59.399Z,21.10
2022-10-28T18:53:26.554Z,21.10
2022-10-28T18:55:53.817Z,21.10
2022-10-28T18:58:20.854Z,21.10
2022-10-28T19:00:47.870Z,21.10
2022-10-28T19:03:22.505Z,21.10
2022-10-28T19:05:49.729Z,21.10
2022-10-28T19:08:16.765Z,21.10
2022-10-28T19:10:43.840Z,21.10
2022-10-28T19:13:10.875Z,21.00
2022-10-28T19:15:42.002Z,21.00
2022-10-28T19:18:09.088Z,21.00
2022-10-28T19:20:36.088Z,21.00
2022-10-28T19:23:03.199Z,21.00
2022-10-28T19:25:32.512Z,20.90
2022-10-28T19:27:59.865Z,20.70
2022-10-28T19:30:27.072Z,20.60
2022-10-28T19:32:54.371Z,20.60
2022-10-28T19:35:21.662Z,20.60
2022-10-28T19:37:51.636Z,20.70
2022-10-28T19:40:19.006Z,20.70
2022-10-28T19:42:46.055Z,20.80
2022-10-28T19:45:13.082Z,20.80
2022-10-28T19:47:40.070Z,20.90
2022-10-28T19:50:09.818Z,21.00
2022-10-28T19:52:36.912Z,21.00
2022-10-28T19:55:04.169Z,21.10
2022-10-28T19:57:31.154Z,21.10
2022-10-28T19:59:58.187Z,21.10
2022-10-28T20:02:25.439Z,21.10
2022-10-28T20:04:56.020Z,21.10
2022-10-28T20:07:25.990Z,21.00
2022-10-28T20:09:54.354Z,21.00
2022-10-28T20:12:21.408Z,21.10
2022-10-28T20:14:48.366Z,21.00
2022-10-28T20:17:16.367Z,21.00
2022-10-28T20:19:43.343Z,21.00
2022-10-28T20:22:10.359Z,21.00
2022-10-28T20:24:37.345Z,21.00
2022-10-28T20:27:04.328Z,21.00
2022-10-28T20:29:31.373Z,21.00
2022-10-28T20:31:58.372Z,21.00
2022-10-28T20:34:25.471Z,21.00
2022-10-28T20:36:52.447Z,21.00
2022-10-28T20:39:22.810Z,21.00
2022-10-28T20:41:51.044Z,21.00
2022-10-28T20:44:18.139Z,20.90
2022-10-28T20:46:47.679Z,20.90
2022-10-28T20:49:14.734Z,20.90
2022-10-28T20:51:42.206Z,20.90
2022-10-28T20:54:09.323Z,20.90
2022-10-28T20:56:37.505Z,20.90
2022-10-28T20:59:04.986Z,20.90
2022-10-28T21:01:34.039Z,20.90
2022-10-28T21:04:03.246Z,20.90
2022-10-28T21:06:30.349Z,20.90
2022-10-28T21:08:57.880Z,20.80
2022-10-28T21:11:25.669Z,20.80
2022-10-28T21:13:54.236Z,20.80
2022-10-28T21:16:21.815Z,20.80
2022-10-28T21:18:49.127Z,20.80
2022-10-28T21:21:16.363Z,20.80
2022-10-28T21:23:43.434Z,20.70
2022-10-28T21:26:11.267Z,20.80
2022-10-28T21:28:41.240Z,20.70
2022-10-28T21:31:08.266Z,20.70
2022-10-28T21:33:36.044Z,20.70
2022-10-28T21:36:04.819Z,20.70
2022-10-28T21:38:32.016Z,20.70
2022-10-28T21:40:59.879Z,20.70
2022-10-28T21:43:30.903Z,20.70
2022-10-28T21:45:58.236Z,20.70
2022-10-28T21:48:25.648Z,20.60
2022-10-28T21:50:53.225Z,20.60
2022-10-28T21:53:20.276Z,20.60
2022-10-28T21:55:49.078Z,20.60
2022-10-28T21:58:17.650Z,20.60
2022-10-28T22:00:45.042Z,20.60
2022-10-28T22:03:12.830Z,20.60
2022-10-28T22:05:40.173Z,20.60
2022-10-28T22:08:07.155Z,20.60
2022-10-28T22:10:34.255Z,20.60
2022-10-28T22:13:01.255Z,20.60
2022-10-28T22:15:28.280Z,20.50
2022-10-28T22:17:55.604Z,20.60
2022-10-28T22:20:22.968Z,20.50
2022-10-28T22:22:50.052Z,20.60
2022-10-28T22:25:17.224Z,20.60
2022-10-28T22:27:44.986Z,20.60
2022-10-28T22:30:13.396Z,20.60
2022-10-28T22:32:40.438Z,20.60
2022-10-28T22:35:07.963Z,20.50
2022-10-28T22:37:34.987Z,20.50
2022-10-28T22:40:02.059Z,20.50
2022-10-28T22:42:29.093Z,20.50
2022-10-28T22:44:56.160Z,20.50
2022-10-28T22:47:23.240Z,20.50
2022-10-28T22:49:50.208Z,20.50
2022-10-28T22:52:17.235Z,20.50
2022-10-28T22:54:44.232Z,20.50
2022-10-28T22:57:11.250Z,20.50
2022-10-28T22:59:38.254Z,20.50
2022-10-28T23:02:05.352Z,20.50
2022-10-28T23:04:32.467Z,20.40
2022-10-28T23:06:59.491Z,20.50
2022-10-28T23:09:26.485Z,20.40
2022-10-28T23:11:53.537Z,20.50
2022-10-28T23:14:20.519Z,20.50
2022-10-28T23:16:50.274Z,20.40
2022-10-28T23:19:17.351Z,20.40
2022-10-28T23:21:44.423Z,20.40
2022-10-28T23:24:11.440Z,20.40
2022-10-28T23:26:38.469Z,20.40
2022-10-28T23:29:05.551Z,20.40
2022-10-28T23:31:32.613Z,20.40
2022-10-28T23:33:59.719Z,20.40
2022-10-28T23:36:26.776Z,20.40
2022-10-28T23:38:55.669Z,20.40
2022-10-28T23:41:22.733Z,20.40
2022-10-28T23:43:50.542Z,20.40
2022-10-28T23:46:17.911Z,20.40
2022-10-28T23:48:44.926Z,20.40
2022-10-28T23:51:12.084Z,20.40
2022-10-28T23:53:39.192Z,20.30
2022-10-28T23:56:06.580Z,20.40
2022-10-28T23:58:33.572Z,20.40
